Forside
METAR-TAF:

METAR-TAF

Lufthavne :

Grosse Ile Municipal Airport

Detroit / Grosse Ile, Michigan, USA

Breddekreds: 42-05-55N, længdekreds: 083-09-40W, højde: 180 m

Aktuelle vejr

Denne rapport blev lavet for 21 minutter siden, kl. 02:35 UTC
Vind 4 kt fra sydsydøst
Temperatur 21°C
Fugtighed 83%
Tryk 1014 hPa
Sigt: 16.1 km
skyfri

METAR: KONZ 250235Z AUTO 16004KT 10SM CLR 21/18 A2994 RMK AO2 T02060176

Tid: 22:56 (02:56 UTC)


TAF: fraværende

Vejrobservationer og prognoser fra mere end 4000 lufthavne (METAR og TAF).

De gule og røde prikker repræsenterer de meteorologiske stationer.

Flyt musen over at se navnet på stationen.

Så klik over at se vejr observationer og prognoser.

At skifte det kort: Klik på de grønne knapper med et sort kors for at zoome ind; på den grønne knap med en bindestreg for at zoome ud; eller på de grønne pile for tilstødende kort.


METAR-TAF: